Ana Sayfa
METAR-TAF:

METAR-TAF

Havaalanları :

Ceduna, Avustralya

Enlem: 32-07-50S, Boylam: 133-42-35E, yükseklik: 23 m

Güncel hava durumu gözlemi

Rapor saat 23:00 UTC de 1 saat ve 5 dakika önce yapıldı.
Rüzgar güney/güneydoğudan 10 kt
Sıcaklık 18°C
Nem 73%
Basınç 1017 hPa
Görüş mesafesi 10 km veya daha fazla
1600 ft yükseklikte parçalı çok bulutlu

METAR: YCDU 052300Z AUTO 15010KT 9999 // BKN016 18/13 Q1017

Saat: 10:35 (00:05 UTC)


TAF: eksik

4.000'den fazla havaalanı için hava durumu gözlemleri ve tahminleri (METAR ve TAF raporları).

Kullanılabilir istasyonlar harita üzerinde sarı ve kırmızı noktalarla gösterilir.

İstasyonun adını görmek için fareyi noktanın üzerinde gezdirin.

Sonrasında hava gözlem ve tahminlerini görmek için tıklayın.

Haritayı değiştirmek için: yaklaştırmak için siyah artı işaretli yeşil düğmeye ve uzaklaştırmak için de eksi işaretli düğmeye hızla tıklayın; bitişik haritalar için yeşil okları kullanın.


METAR-TAF: